N624JX KBOS-KBJC
Flight info
| Callsign | N624JX |
|---|---|
| Flight time | 3h 47m |
| Altitude | 40000 |
| Route | HYLND7 HYLND CAM Q822 GONZZ WOZEE RUBYY/N0522F430 DABJU J36 DUTYS J16 MCW J148 GOOLD WYYTE SHRPE BRNKO4 |
| Aircraft | C750/M-SBDE3FGHRWXY/S |
Departure
| Time | 2026-05-06 16:31 |
|---|---|
| Airport | Boston Logan International Airport (KBOS) |
Arrival
| Time | 2026-05-06 20:18 |
|---|---|
| Airport | Rocky Mountain Metropolitan Airport (KBJC) |
| Time | Latitude | Longitude | Altitude | Speed | Heading |
|---|---|---|---|---|---|
| 2026-05-06 16:16 | 42.37432 | -71.02150 | 22 ft | 0 kts | 314° |
| 2026-05-06 16:22 | 42.37434 | -71.02152 | 22 ft | 2 kts | 314° |
| 2026-05-06 16:22 | 42.37456 | -71.02164 | 23 ft | 4 kts | 8° |
| 2026-05-06 16:22 | 42.37478 | -71.02139 | 22 ft | 4 kts | 42° |
| 2026-05-06 16:22 | 42.37495 | -71.02108 | 22 ft | 5 kts | 77° |
| 2026-05-06 16:23 | 42.37472 | -71.02061 | 22 ft | 7 kts | 135° |
| 2026-05-06 16:23 | 42.37431 | -71.02005 | 22 ft | 8 kts | 135° |
| 2026-05-06 16:23 | 42.37393 | -71.01954 | 22 ft | 9 kts | 135° |
| 2026-05-06 16:23 | 42.37340 | -71.01883 | 22 ft | 12 kts | 135° |
| 2026-05-06 16:24 | 42.37271 | -71.01791 | 22 ft | 15 kts | 135° |
| 2026-05-06 16:24 | 42.37196 | -71.01692 | 22 ft | 14 kts | 135° |
| 2026-05-06 16:24 | 42.37131 | -71.01604 | 23 ft | 12 kts | 135° |
| 2026-05-06 16:24 | 42.37075 | -71.01529 | 22 ft | 11 kts | 135° |
| 2026-05-06 16:25 | 42.37024 | -71.01461 | 22 ft | 9 kts | 135° |
| 2026-05-06 16:25 | 42.36978 | -71.01399 | 22 ft | 9 kts | 135° |
| 2026-05-06 16:25 | 42.36938 | -71.01346 | 22 ft | 8 kts | 135° |
| 2026-05-06 16:25 | 42.36897 | -71.01290 | 22 ft | 8 kts | 135° |
| 2026-05-06 16:26 | 42.36900 | -71.01207 | 24 ft | 11 kts | 44° |
| 2026-05-06 16:26 | 42.36962 | -71.01136 | 23 ft | 12 kts | 40° |
| 2026-05-06 16:26 | 42.37036 | -71.01079 | 22 ft | 13 kts | 26° |
| 2026-05-06 16:26 | 42.37116 | -71.01027 | 22 ft | 14 kts | 26° |
| 2026-05-06 16:27 | 42.37198 | -71.00973 | 23 ft | 12 kts | 25° |
| 2026-05-06 16:27 | 42.37271 | -71.00926 | 22 ft | 12 kts | 26° |
| 2026-05-06 16:27 | 42.37351 | -71.00884 | 22 ft | 12 kts | 20° |
| 2026-05-06 16:27 | 42.37427 | -71.00846 | 22 ft | 12 kts | 20° |
| 2026-05-06 16:28 | 42.37509 | -71.00806 | 22 ft | 13 kts | 19° |
| 2026-05-06 16:28 | 42.37588 | -71.00768 | 22 ft | 11 kts | 20° |
| 2026-05-06 16:28 | 42.37661 | -71.00733 | 22 ft | 12 kts | 20° |
| 2026-05-06 16:28 | 42.37745 | -71.00693 | 22 ft | 12 kts | 19° |
| 2026-05-06 16:29 | 42.37817 | -71.00657 | 22 ft | 9 kts | 24° |
| 2026-05-06 16:29 | 42.37839 | -71.00599 | 22 ft | 7 kts | 93° |
| 2026-05-06 16:29 | 42.37825 | -71.00545 | 23 ft | 7 kts | 109° |
| 2026-05-06 16:29 | 42.37810 | -71.00488 | 22 ft | 5 kts | 111° |
| 2026-05-06 16:30 | 42.37789 | -71.00476 | 22 ft | 3 kts | 182° |
| 2026-05-06 16:30 | 42.37779 | -71.00480 | 22 ft | 3 kts | 199° |
| 2026-05-06 16:30 | 42.37374 | -71.00676 | 26 ft | 103 kts | 199° |
| 2026-05-06 16:30 | 42.36537 | -71.01084 | 112 ft | 142 kts | 199° |
| 2026-05-06 16:31 | 42.35570 | -71.01465 | 669 ft | 148 kts | 186° |
| 2026-05-06 16:31 | 42.34544 | -71.01416 | 1423 ft | 150 kts | 176° |
| 2026-05-06 16:31 | 42.33528 | -71.00794 | 2113 ft | 178 kts | 151° |
| 2026-05-06 16:31 | 42.32621 | -70.99416 | 2842 ft | 211 kts | 140° |
| 2026-05-06 16:32 | 42.31709 | -70.97729 | 3694 ft | 237 kts | 132° |
| 2026-05-06 16:32 | 42.31269 | -70.95360 | 4439 ft | 288 kts | 98° |
| 2026-05-06 16:32 | 42.31573 | -70.92573 | 5583 ft | 305 kts | 85° |
| 2026-05-06 16:32 | 42.32060 | -70.89775 | 6672 ft | 308 kts | 83° |
| 2026-05-06 16:33 | 42.32513 | -70.86918 | 7362 ft | 314 kts | 86° |
| 2026-05-06 16:33 | 42.32922 | -70.84003 | 8157 ft | 319 kts | 86° |
| 2026-05-06 16:33 | 42.33354 | -70.81041 | 8982 ft | 324 kts | 86° |
| 2026-05-06 16:34 | 42.35522 | -70.75512 | 10252 ft | 355 kts | 42° |
| 2026-05-06 16:34 | 42.37705 | -70.73856 | 10577 ft | 365 kts | 15° |
| 2026-05-06 16:34 | 42.40158 | -70.72841 | 11107 ft | 373 kts | 12° |
| 2026-05-06 16:34 | 42.42686 | -70.71930 | 11588 ft | 378 kts | 7° |
| 2026-05-06 16:35 | 42.45290 | -70.71887 | 11979 ft | 374 kts | 344° |
| 2026-05-06 16:35 | 42.47739 | -70.72935 | 12423 ft | 367 kts | 327° |
| 2026-05-06 16:35 | 42.50059 | -70.74439 | 12932 ft | 372 kts | 326° |
| 2026-05-06 16:35 | 42.52303 | -70.76162 | 13396 ft | 368 kts | 316° |
| 2026-05-06 16:36 | 42.54167 | -70.78486 | 13836 ft | 361 kts | 303° |
| 2026-05-06 16:36 | 42.55618 | -70.81212 | 14264 ft | 355 kts | 295° |
| 2026-05-06 16:36 | 42.56978 | -70.84029 | 14751 ft | 358 kts | 295° |
| 2026-05-06 16:36 | 42.58364 | -70.86849 | 15286 ft | 361 kts | 296° |
| 2026-05-06 16:37 | 42.59763 | -70.89698 | 15825 ft | 364 kts | 296° |
| 2026-05-06 16:37 | 42.61159 | -70.92571 | 16386 ft | 366 kts | 296° |
| 2026-05-06 16:37 | 42.62567 | -70.95472 | 16944 ft | 369 kts | 296° |
| 2026-05-06 16:37 | 42.63988 | -70.98394 | 17504 ft | 372 kts | 296° |
| 2026-05-06 16:38 | 42.65421 | -71.01339 | 18071 ft | 375 kts | 296° |
| 2026-05-06 16:38 | 42.66865 | -71.04313 | 18491 ft | 378 kts | 296° |
| 2026-05-06 16:38 | 42.68316 | -71.07305 | 18927 ft | 380 kts | 296° |
| 2026-05-06 16:38 | 42.69775 | -71.10316 | 19385 ft | 382 kts | 296° |
| 2026-05-06 16:39 | 42.71241 | -71.13344 | 19837 ft | 385 kts | 296° |
| 2026-05-06 16:39 | 42.72715 | -71.16392 | 20301 ft | 387 kts | 296° |
| 2026-05-06 16:39 | 42.74196 | -71.19459 | 20742 ft | 389 kts | 296° |
| 2026-05-06 16:39 | 42.75201 | -71.21543 | 21039 ft | 391 kts | 296° |
| 2026-05-06 16:40 | 42.76641 | -71.24683 | 21472 ft | 390 kts | 292° |
| 2026-05-06 16:40 | 42.77733 | -71.27984 | 21917 ft | 386 kts | 285° |
| 2026-05-06 16:40 | 42.78498 | -71.31525 | 22383 ft | 384 kts | 277° |
| 2026-05-06 16:40 | 42.78932 | -71.35110 | 22817 ft | 384 kts | 274° |
| 2026-05-06 16:41 | 42.79330 | -71.38721 | 23252 ft | 387 kts | 274° |
| 2026-05-06 16:41 | 42.79747 | -71.42359 | 23620 ft | 390 kts | 275° |
| 2026-05-06 16:41 | 42.80159 | -71.46018 | 24019 ft | 391 kts | 274° |
| 2026-05-06 16:41 | 42.80560 | -71.49688 | 24408 ft | 393 kts | 274° |
| 2026-05-06 16:42 | 42.80963 | -71.53372 | 24814 ft | 394 kts | 274° |
| 2026-05-06 16:42 | 42.81370 | -71.57063 | 25251 ft | 395 kts | 275° |
| 2026-05-06 16:42 | 42.81778 | -71.60751 | 25725 ft | 393 kts | 275° |
| 2026-05-06 16:42 | 42.82181 | -71.64439 | 26082 ft | 395 kts | 274° |
| 2026-05-06 16:43 | 42.82583 | -71.68149 | 26452 ft | 396 kts | 274° |
| 2026-05-06 16:43 | 42.82987 | -71.71868 | 26816 ft | 398 kts | 275° |
| 2026-05-06 16:43 | 42.83393 | -71.75605 | 27214 ft | 400 kts | 275° |
| 2026-05-06 16:43 | 42.83799 | -71.79355 | 27634 ft | 401 kts | 275° |
| 2026-05-06 16:44 | 42.84204 | -71.83127 | 28039 ft | 403 kts | 275° |
| 2026-05-06 16:44 | 42.84609 | -71.86914 | 28404 ft | 404 kts | 275° |
| 2026-05-06 16:44 | 42.85017 | -71.90712 | 28758 ft | 406 kts | 275° |
| 2026-05-06 16:44 | 42.85425 | -71.94534 | 29118 ft | 409 kts | 275° |
| 2026-05-06 16:45 | 42.85828 | -71.98336 | 29499 ft | 411 kts | 275° |
| 2026-05-06 16:45 | 42.86237 | -72.02199 | 29886 ft | 413 kts | 275° |
| 2026-05-06 16:45 | 42.86647 | -72.06081 | 30207 ft | 415 kts | 275° |
| 2026-05-06 16:45 | 42.87058 | -72.09979 | 30524 ft | 416 kts | 275° |
| 2026-05-06 16:46 | 42.87467 | -72.13880 | 30861 ft | 416 kts | 275° |
| 2026-05-06 16:46 | 42.87875 | -72.17770 | 31275 ft | 412 kts | 275° |
| 2026-05-06 16:46 | 42.88277 | -72.21625 | 31628 ft | 410 kts | 275° |
| 2026-05-06 16:46 | 42.88675 | -72.25465 | 31973 ft | 408 kts | 275° |
| 2026-05-06 16:47 | 42.89069 | -72.29279 | 32324 ft | 405 kts | 274° |
| 2026-05-06 16:47 | 42.89461 | -72.33073 | 32656 ft | 403 kts | 274° |
| 2026-05-06 16:47 | 42.89849 | -72.36849 | 33002 ft | 401 kts | 274° |
| 2026-05-06 16:47 | 42.90239 | -72.40661 | 33361 ft | 399 kts | 274° |
| 2026-05-06 16:48 | 42.90616 | -72.44354 | 33730 ft | 398 kts | 274° |
| 2026-05-06 16:48 | 42.91001 | -72.48130 | 34091 ft | 395 kts | 274° |
| 2026-05-06 16:48 | 42.91376 | -72.51831 | 34454 ft | 392 kts | 274° |
| 2026-05-06 16:48 | 42.91747 | -72.55502 | 34839 ft | 389 kts | 274° |
| 2026-05-06 16:49 | 42.92114 | -72.59146 | 35240 ft | 386 kts | 275° |
| 2026-05-06 16:49 | 42.92477 | -72.62752 | 35701 ft | 381 kts | 274° |
| 2026-05-06 16:49 | 42.92833 | -72.66311 | 36142 ft | 377 kts | 275° |
| 2026-05-06 16:49 | 42.93185 | -72.69840 | 36544 ft | 373 kts | 275° |
| 2026-05-06 16:50 | 42.93532 | -72.73330 | 36941 ft | 370 kts | 275° |
| 2026-05-06 16:50 | 42.93876 | -72.76790 | 37357 ft | 366 kts | 275° |
| 2026-05-06 16:50 | 42.94214 | -72.80212 | 37826 ft | 362 kts | 275° |
| 2026-05-06 16:50 | 42.94548 | -72.83598 | 38317 ft | 357 kts | 275° |
| 2026-05-06 16:51 | 42.94876 | -72.86944 | 38682 ft | 355 kts | 275° |
| 2026-05-06 16:51 | 42.95203 | -72.90292 | 38942 ft | 357 kts | 275° |
| 2026-05-06 16:51 | 42.95531 | -72.93654 | 39199 ft | 358 kts | 275° |
| 2026-05-06 16:51 | 42.95861 | -72.97044 | 39420 ft | 362 kts | 275° |
| 2026-05-06 16:52 | 42.96193 | -73.00457 | 39680 ft | 364 kts | 275° |
| 2026-05-06 16:52 | 42.96525 | -73.03893 | 39825 ft | 368 kts | 275° |
| 2026-05-06 16:52 | 42.96862 | -73.07401 | 39828 ft | 376 kts | 275° |
| 2026-05-06 16:53 | 42.97557 | -73.14633 | 39829 ft | 392 kts | 275° |
| 2026-05-06 16:53 | 42.98274 | -73.22172 | 39826 ft | 407 kts | 275° |
| 2026-05-06 16:54 | 42.99012 | -73.29968 | 39823 ft | 420 kts | 275° |
| 2026-05-06 16:54 | 42.99518 | -73.37972 | 39823 ft | 424 kts | 270° |
| 2026-05-06 16:55 | 42.99721 | -73.46044 | 39817 ft | 426 kts | 271° |
| 2026-05-06 16:55 | 42.99922 | -73.54131 | 39815 ft | 426 kts | 270° |
| 2026-05-06 16:56 | 43.00108 | -73.62220 | 39811 ft | 426 kts | 270° |
| 2026-05-06 16:56 | 43.00297 | -73.70316 | 39807 ft | 427 kts | 270° |
| 2026-05-06 16:57 | 43.00472 | -73.78358 | 39808 ft | 426 kts | 270° |
| 2026-05-06 16:57 | 43.00648 | -73.86451 | 39806 ft | 426 kts | 270° |
| 2026-05-06 16:58 | 43.00815 | -73.94543 | 39794 ft | 426 kts | 270° |
| 2026-05-06 16:58 | 43.00978 | -74.02637 | 39790 ft | 427 kts | 270° |
| 2026-05-06 16:59 | 43.01135 | -74.10759 | 39791 ft | 428 kts | 270° |
| 2026-05-06 16:59 | 43.01287 | -74.18877 | 39791 ft | 427 kts | 270° |
| 2026-05-06 17:00 | 43.01472 | -74.26991 | 39784 ft | 428 kts | 271° |
| 2026-05-06 17:00 | 43.01856 | -74.35106 | 39790 ft | 428 kts | 271° |
| 2026-05-06 17:01 | 43.02212 | -74.43250 | 39791 ft | 430 kts | 271° |
| 2026-05-06 17:01 | 43.02580 | -74.51420 | 39798 ft | 431 kts | 271° |
| 2026-05-06 17:02 | 43.02932 | -74.59598 | 39799 ft | 431 kts | 271° |
| 2026-05-06 17:02 | 43.03285 | -74.67776 | 39793 ft | 431 kts | 271° |
| 2026-05-06 17:03 | 43.03628 | -74.75959 | 39794 ft | 431 kts | 271° |
| 2026-05-06 17:03 | 43.03968 | -74.84149 | 39810 ft | 431 kts | 271° |
| 2026-05-06 17:04 | 43.04301 | -74.92331 | 39806 ft | 431 kts | 271° |
| 2026-05-06 17:04 | 43.04628 | -75.00515 | 39798 ft | 430 kts | 271° |
| 2026-05-06 17:05 | 43.04948 | -75.08696 | 39833 ft | 435 kts | 271° |
| 2026-05-06 17:05 | 43.05266 | -75.16922 | 39824 ft | 432 kts | 271° |
| 2026-05-06 17:06 | 43.05577 | -75.25159 | 39839 ft | 435 kts | 271° |
| 2026-05-06 17:06 | 43.05871 | -75.33410 | 39842 ft | 434 kts | 270° |
| 2026-05-06 17:07 | 43.06075 | -75.41667 | 39846 ft | 435 kts | 270° |
| 2026-05-06 17:07 | 43.06321 | -75.49953 | 39845 ft | 436 kts | 270° |
| 2026-05-06 17:08 | 43.06537 | -75.58246 | 39848 ft | 436 kts | 270° |
| 2026-05-06 17:08 | 43.06757 | -75.66544 | 39844 ft | 437 kts | 270° |
| 2026-05-06 17:09 | 43.06968 | -75.74838 | 39845 ft | 436 kts | 270° |
| 2026-05-06 17:09 | 43.07174 | -75.83144 | 39840 ft | 437 kts | 270° |
| 2026-05-06 17:10 | 43.07375 | -75.91445 | 39843 ft | 437 kts | 270° |
| 2026-05-06 17:10 | 43.07568 | -75.99748 | 39856 ft | 437 kts | 270° |
| 2026-05-06 17:11 | 43.07756 | -76.08051 | 39857 ft | 437 kts | 270° |
| 2026-05-06 17:11 | 43.07938 | -76.16356 | 39860 ft | 438 kts | 270° |
| 2026-05-06 17:12 | 43.08114 | -76.24679 | 39852 ft | 438 kts | 270° |
| 2026-05-06 17:12 | 43.08283 | -76.32940 | 39850 ft | 437 kts | 270° |
| 2026-05-06 17:13 | 43.08448 | -76.41312 | 39855 ft | 438 kts | 270° |
| 2026-05-06 17:13 | 43.08606 | -76.49635 | 39860 ft | 438 kts | 270° |
| 2026-05-06 17:14 | 43.08758 | -76.57908 | 39861 ft | 438 kts | 270° |
| 2026-05-06 17:14 | 43.08904 | -76.66241 | 39868 ft | 438 kts | 270° |
| 2026-05-06 17:15 | 43.08541 | -76.74542 | 39861 ft | 437 kts | 264° |
| 2026-05-06 17:15 | 43.07996 | -76.82824 | 39868 ft | 437 kts | 264° |
| 2026-05-06 17:16 | 43.07428 | -76.91107 | 39881 ft | 436 kts | 264° |
| 2026-05-06 17:16 | 43.06857 | -76.99310 | 39892 ft | 433 kts | 264° |
| 2026-05-06 17:17 | 43.06288 | -77.07510 | 39893 ft | 433 kts | 264° |
| 2026-05-06 17:17 | 43.05707 | -77.15707 | 39893 ft | 433 kts | 264° |
| 2026-05-06 17:18 | 43.05120 | -77.23958 | 39894 ft | 433 kts | 264° |
| 2026-05-06 17:18 | 43.04530 | -77.32146 | 39883 ft | 432 kts | 264° |
| 2026-05-06 17:19 | 43.03935 | -77.40330 | 39886 ft | 433 kts | 264° |
| 2026-05-06 17:19 | 43.03334 | -77.48510 | 39903 ft | 433 kts | 264° |
| 2026-05-06 17:20 | 43.02830 | -77.55308 | 39902 ft | 432 kts | 264° |
| 2026-05-06 17:20 | 43.02218 | -77.63490 | 39903 ft | 434 kts | 264° |
| 2026-05-06 17:21 | 43.01598 | -77.71701 | 39907 ft | 434 kts | 263° |
| 2026-05-06 17:21 | 43.00972 | -77.79906 | 39901 ft | 434 kts | 263° |
| 2026-05-06 17:22 | 43.00341 | -77.88111 | 39898 ft | 434 kts | 263° |
| 2026-05-06 17:22 | 42.99704 | -77.96312 | 39910 ft | 434 kts | 263° |
| 2026-05-06 17:23 | 42.99063 | -78.04477 | 39894 ft | 430 kts | 263° |
| 2026-05-06 17:23 | 42.98419 | -78.12613 | 39894 ft | 431 kts | 263° |
| 2026-05-06 17:24 | 42.97769 | -78.20754 | 39894 ft | 431 kts | 263° |
| 2026-05-06 17:24 | 42.97113 | -78.28890 | 39891 ft | 431 kts | 263° |
| 2026-05-06 17:25 | 42.96451 | -78.37023 | 39887 ft | 431 kts | 263° |
| 2026-05-06 17:25 | 42.95784 | -78.45160 | 39889 ft | 431 kts | 263° |
| 2026-05-06 17:26 | 42.95110 | -78.53294 | 39893 ft | 431 kts | 263° |
| 2026-05-06 17:26 | 42.94431 | -78.61426 | 39896 ft | 431 kts | 263° |
| 2026-05-06 17:27 | 42.93746 | -78.69556 | 39915 ft | 431 kts | 263° |
| 2026-05-06 17:27 | 42.93530 | -78.77751 | 39887 ft | 434 kts | 271° |
| 2026-05-06 17:28 | 42.93861 | -78.85979 | 39900 ft | 434 kts | 270° |
| 2026-05-06 17:28 | 42.94168 | -78.94199 | 39898 ft | 434 kts | 271° |
| 2026-05-06 17:29 | 42.94485 | -79.02420 | 39896 ft | 434 kts | 271° |
| 2026-05-06 17:29 | 42.94786 | -79.10647 | 39896 ft | 435 kts | 270° |
| 2026-05-06 17:30 | 42.95087 | -79.18897 | 39894 ft | 435 kts | 270° |
| 2026-05-06 17:30 | 42.95377 | -79.27094 | 39902 ft | 435 kts | 270° |
| 2026-05-06 17:31 | 42.95666 | -79.35337 | 39900 ft | 435 kts | 270° |
| 2026-05-06 17:31 | 42.95946 | -79.43581 | 39917 ft | 435 kts | 270° |
| 2026-05-06 17:32 | 42.96223 | -79.51848 | 39899 ft | 436 kts | 270° |
| 2026-05-06 17:32 | 42.96493 | -79.60111 | 39899 ft | 436 kts | 270° |
| 2026-05-06 17:33 | 42.96757 | -79.68376 | 39900 ft | 436 kts | 270° |
| 2026-05-06 17:33 | 42.97015 | -79.76630 | 39888 ft | 432 kts | 270° |
| 2026-05-06 17:34 | 42.97265 | -79.84827 | 39894 ft | 433 kts | 270° |
| 2026-05-06 17:34 | 42.97510 | -79.93048 | 39899 ft | 434 kts | 270° |
| 2026-05-06 17:35 | 42.97750 | -80.01275 | 39894 ft | 433 kts | 270° |
| 2026-05-06 17:35 | 42.97983 | -80.09494 | 39896 ft | 433 kts | 270° |
| 2026-05-06 17:36 | 42.98322 | -80.21845 | 39891 ft | 436 kts | 270° |
| 2026-05-06 17:36 | 42.98542 | -80.30124 | 39893 ft | 436 kts | 270° |
| 2026-05-06 17:37 | 42.98756 | -80.38403 | 39896 ft | 436 kts | 269° |
| 2026-05-06 17:37 | 42.98964 | -80.46689 | 39900 ft | 436 kts | 269° |
| 2026-05-06 17:38 | 42.99166 | -80.54973 | 39910 ft | 437 kts | 269° |
| 2026-05-06 17:38 | 42.99364 | -80.63293 | 39902 ft | 438 kts | 269° |
| 2026-05-06 17:39 | 42.99555 | -80.71610 | 39907 ft | 438 kts | 269° |
| 2026-05-06 17:39 | 42.99740 | -80.79928 | 39919 ft | 438 kts | 269° |
| 2026-05-06 17:40 | 42.99918 | -80.88243 | 39923 ft | 438 kts | 269° |
| 2026-05-06 17:40 | 43.00091 | -80.96580 | 39926 ft | 440 kts | 269° |
| 2026-05-06 17:41 | 43.00259 | -81.04935 | 39929 ft | 440 kts | 269° |
| 2026-05-06 17:41 | 43.00420 | -81.13291 | 39931 ft | 440 kts | 269° |
| 2026-05-06 17:42 | 43.00576 | -81.21644 | 39932 ft | 440 kts | 269° |
| 2026-05-06 17:42 | 43.00725 | -81.29998 | 39935 ft | 441 kts | 269° |
| 2026-05-06 17:43 | 43.00869 | -81.38378 | 39934 ft | 441 kts | 269° |
| 2026-05-06 17:43 | 43.01006 | -81.46759 | 39940 ft | 441 kts | 269° |
| 2026-05-06 17:44 | 43.01138 | -81.55135 | 39953 ft | 441 kts | 269° |
| 2026-05-06 17:44 | 43.01263 | -81.63513 | 39961 ft | 441 kts | 269° |
| 2026-05-06 17:45 | 43.01382 | -81.71898 | 39973 ft | 442 kts | 269° |
| 2026-05-06 17:45 | 43.01495 | -81.80245 | 39973 ft | 442 kts | 269° |
| 2026-05-06 17:46 | 43.01602 | -81.88640 | 39986 ft | 442 kts | 269° |
| 2026-05-06 17:46 | 43.01703 | -81.97040 | 39988 ft | 442 kts | 269° |
| 2026-05-06 17:47 | 43.01798 | -82.05434 | 39991 ft | 442 kts | 269° |
| 2026-05-06 17:47 | 43.01887 | -82.13831 | 39991 ft | 442 kts | 269° |
| 2026-05-06 17:48 | 43.01969 | -82.22229 | 39992 ft | 442 kts | 268° |
| 2026-05-06 17:48 | 43.02045 | -82.30626 | 39992 ft | 442 kts | 268° |
| 2026-05-06 17:49 | 43.02116 | -82.39026 | 39992 ft | 442 kts | 268° |
| 2026-05-06 17:49 | 43.02180 | -82.47435 | 39992 ft | 443 kts | 268° |
| 2026-05-06 17:50 | 43.02238 | -82.55853 | 40001 ft | 443 kts | 268° |
| 2026-05-06 17:50 | 43.02290 | -82.64269 | 39998 ft | 443 kts | 268° |
| 2026-05-06 17:51 | 43.02336 | -82.72687 | 39995 ft | 443 kts | 268° |
| 2026-05-06 17:51 | 43.02376 | -82.81105 | 39984 ft | 445 kts | 268° |
| 2026-05-06 17:52 | 43.02409 | -82.89590 | 39978 ft | 447 kts | 268° |
| 2026-05-06 17:52 | 43.02437 | -82.98086 | 39970 ft | 447 kts | 268° |
| 2026-05-06 17:53 | 43.02458 | -83.06589 | 39978 ft | 447 kts | 268° |
| 2026-05-06 17:53 | 43.02473 | -83.15088 | 39978 ft | 447 kts | 268° |
| 2026-05-06 17:54 | 43.02482 | -83.23575 | 39970 ft | 444 kts | 268° |
| 2026-05-06 17:54 | 43.02484 | -83.31969 | 39979 ft | 445 kts | 268° |
| 2026-05-06 17:55 | 43.02480 | -83.40430 | 39983 ft | 445 kts | 268° |
| 2026-05-06 17:55 | 43.02470 | -83.48889 | 39987 ft | 445 kts | 268° |
| 2026-05-06 17:56 | 43.02453 | -83.57359 | 39995 ft | 446 kts | 268° |
| 2026-05-06 17:56 | 43.02431 | -83.65839 | 39997 ft | 446 kts | 268° |
| 2026-05-06 17:57 | 43.02402 | -83.74318 | 39998 ft | 446 kts | 268° |
| 2026-05-06 17:57 | 43.02367 | -83.82792 | 39995 ft | 446 kts | 268° |
| 2026-05-06 17:58 | 43.02325 | -83.91273 | 40010 ft | 446 kts | 268° |
| 2026-05-06 17:58 | 43.02278 | -83.99738 | 39996 ft | 445 kts | 268° |
| 2026-05-06 17:59 | 43.02224 | -84.08199 | 39995 ft | 445 kts | 268° |
| 2026-05-06 17:59 | 43.02164 | -84.16663 | 39996 ft | 445 kts | 267° |
| 2026-05-06 18:00 | 43.02098 | -84.25124 | 39995 ft | 445 kts | 267° |
| 2026-05-06 18:00 | 43.02025 | -84.33644 | 39994 ft | 445 kts | 267° |
| 2026-05-06 18:01 | 43.01946 | -84.42108 | 40002 ft | 446 kts | 267° |
| 2026-05-06 18:01 | 43.01861 | -84.50577 | 39998 ft | 446 kts | 267° |
| 2026-05-06 18:02 | 43.01891 | -84.59042 | 39990 ft | 447 kts | 272° |
| 2026-05-06 18:02 | 43.02779 | -84.67464 | 40221 ft | 445 kts | 275° |
| 2026-05-06 18:03 | 43.03244 | -84.71612 | 40620 ft | 438 kts | 275° |
| 2026-05-06 18:03 | 43.03699 | -84.75700 | 41020 ft | 432 kts | 275° |
| 2026-05-06 18:03 | 43.04003 | -84.78377 | 41286 ft | 429 kts | 275° |
| 2026-05-06 18:03 | 43.04613 | -84.83718 | 41825 ft | 421 kts | 275° |
| 2026-05-06 18:04 | 43.04907 | -84.86327 | 42095 ft | 418 kts | 275° |
| 2026-05-06 18:04 | 43.05342 | -84.90233 | 42508 ft | 413 kts | 275° |
| 2026-05-06 18:04 | 43.05772 | -84.94086 | 42913 ft | 408 kts | 275° |
| 2026-05-06 18:04 | 43.06201 | -84.97936 | 42981 ft | 413 kts | 275° |
| 2026-05-06 18:05 | 43.07075 | -85.05833 | 43005 ft | 427 kts | 275° |
| 2026-05-06 18:05 | 43.07976 | -85.13995 | 43004 ft | 441 kts | 275° |
| 2026-05-06 18:06 | 43.08896 | -85.22405 | 43002 ft | 453 kts | 275° |
| 2026-05-06 18:06 | 43.09821 | -85.30889 | 43004 ft | 455 kts | 275° |
| 2026-05-06 18:07 | 43.10744 | -85.39453 | 43001 ft | 455 kts | 275° |
| 2026-05-06 18:07 | 43.11664 | -85.48039 | 43005 ft | 457 kts | 275° |
| 2026-05-06 18:08 | 43.12580 | -85.56647 | 43006 ft | 457 kts | 275° |
| 2026-05-06 18:08 | 43.13489 | -85.65256 | 43005 ft | 457 kts | 275° |
| 2026-05-06 18:09 | 43.14391 | -85.73863 | 43011 ft | 457 kts | 275° |
| 2026-05-06 18:09 | 43.15288 | -85.82478 | 43056 ft | 457 kts | 275° |
| 2026-05-06 18:10 | 43.16181 | -85.91138 | 43013 ft | 459 kts | 275° |
| 2026-05-06 18:10 | 43.17070 | -85.99804 | 43014 ft | 459 kts | 275° |
| 2026-05-06 18:11 | 43.17951 | -86.08471 | 43004 ft | 459 kts | 275° |
| 2026-05-06 18:11 | 43.18826 | -86.17140 | 43003 ft | 459 kts | 275° |
| 2026-05-06 18:12 | 43.19662 | -86.25811 | 43025 ft | 457 kts | 272° |
| 2026-05-06 18:12 | 43.19607 | -86.34474 | 43028 ft | 455 kts | 265° |
| 2026-05-06 18:13 | 43.19335 | -86.43144 | 43034 ft | 455 kts | 266° |
| 2026-05-06 18:13 | 43.19040 | -86.51804 | 43041 ft | 455 kts | 265° |
| 2026-05-06 18:14 | 43.18744 | -86.60473 | 43035 ft | 456 kts | 265° |
| 2026-05-06 18:14 | 43.18440 | -86.69138 | 43041 ft | 455 kts | 265° |
| 2026-05-06 18:15 | 43.18130 | -86.77797 | 43036 ft | 453 kts | 265° |
| 2026-05-06 18:15 | 43.17814 | -86.86427 | 43030 ft | 454 kts | 265° |
| 2026-05-06 18:16 | 43.17492 | -86.95067 | 43049 ft | 454 kts | 265° |
| 2026-05-06 18:16 | 43.17164 | -87.03692 | 43033 ft | 453 kts | 265° |
| 2026-05-06 18:17 | 43.16829 | -87.12314 | 43026 ft | 453 kts | 265° |
| 2026-05-06 18:17 | 43.16488 | -87.20928 | 43026 ft | 453 kts | 265° |
| 2026-05-06 18:18 | 43.16140 | -87.29549 | 43025 ft | 453 kts | 265° |
| 2026-05-06 18:18 | 43.15786 | -87.38165 | 43027 ft | 453 kts | 265° |
| 2026-05-06 18:19 | 43.15426 | -87.46782 | 43022 ft | 453 kts | 265° |
| 2026-05-06 18:19 | 43.15059 | -87.55398 | 43015 ft | 453 kts | 265° |
| 2026-05-06 18:20 | 43.14686 | -87.64009 | 42998 ft | 453 kts | 265° |
| 2026-05-06 18:20 | 43.14306 | -87.72618 | 43002 ft | 454 kts | 265° |
| 2026-05-06 18:21 | 43.13913 | -87.81356 | 42999 ft | 457 kts | 265° |
| 2026-05-06 18:21 | 43.13517 | -87.90047 | 43002 ft | 457 kts | 265° |
| 2026-05-06 18:22 | 43.13114 | -87.98736 | 43000 ft | 457 kts | 265° |
| 2026-05-06 18:22 | 43.12704 | -88.07421 | 42999 ft | 457 kts | 265° |
| 2026-05-06 18:23 | 43.12288 | -88.16106 | 43017 ft | 457 kts | 265° |
| 2026-05-06 18:23 | 43.11866 | -88.24785 | 43015 ft | 457 kts | 264° |
| 2026-05-06 18:24 | 43.11784 | -88.33486 | 43009 ft | 458 kts | 269° |
| 2026-05-06 18:24 | 43.11918 | -88.42200 | 43011 ft | 458 kts | 269° |
| 2026-05-06 18:25 | 43.12062 | -88.50924 | 42998 ft | 459 kts | 269° |
| 2026-05-06 18:25 | 43.12196 | -88.59653 | 42998 ft | 459 kts | 269° |
| 2026-05-06 18:26 | 43.12322 | -88.68383 | 43002 ft | 459 kts | 269° |
| 2026-05-06 18:26 | 43.12443 | -88.77114 | 43000 ft | 459 kts | 269° |
| 2026-05-06 18:27 | 43.12556 | -88.85843 | 43029 ft | 459 kts | 269° |
| 2026-05-06 18:27 | 43.12664 | -88.94603 | 43016 ft | 461 kts | 269° |
| 2026-05-06 18:28 | 43.12766 | -89.03427 | 43013 ft | 460 kts | 269° |
| 2026-05-06 18:28 | 43.12860 | -89.12194 | 43011 ft | 461 kts | 269° |
| 2026-05-06 18:29 | 43.12948 | -89.20959 | 43014 ft | 461 kts | 269° |
| 2026-05-06 18:29 | 43.13028 | -89.29740 | 43016 ft | 462 kts | 269° |
| 2026-05-06 18:30 | 43.13103 | -89.38524 | 43009 ft | 461 kts | 269° |
| 2026-05-06 18:30 | 43.13170 | -89.47366 | 43008 ft | 461 kts | 269° |
| 2026-05-06 18:31 | 43.13230 | -89.56089 | 43013 ft | 462 kts | 269° |
| 2026-05-06 18:31 | 43.13284 | -89.64877 | 43015 ft | 461 kts | 269° |
| 2026-05-06 18:32 | 43.13331 | -89.73663 | 43024 ft | 461 kts | 268° |
| 2026-05-06 18:32 | 43.13371 | -89.82453 | 43030 ft | 462 kts | 268° |
| 2026-05-06 18:33 | 43.13405 | -89.91294 | 43030 ft | 461 kts | 268° |
| 2026-05-06 18:33 | 43.13432 | -90.00082 | 43050 ft | 462 kts | 268° |
| 2026-05-06 18:34 | 43.13452 | -90.08886 | 43052 ft | 463 kts | 268° |
| 2026-05-06 18:34 | 43.13465 | -90.17696 | 43053 ft | 463 kts | 268° |
| 2026-05-06 18:35 | 43.13472 | -90.26501 | 43055 ft | 463 kts | 268° |
| 2026-05-06 18:35 | 43.13471 | -90.35372 | 43053 ft | 463 kts | 268° |
| 2026-05-06 18:36 | 43.13464 | -90.44193 | 43067 ft | 464 kts | 268° |
| 2026-05-06 18:36 | 43.13450 | -90.53031 | 43075 ft | 464 kts | 268° |
| 2026-05-06 18:37 | 43.13433 | -90.60363 | 43076 ft | 464 kts | 268° |
| 2026-05-06 18:37 | 43.13402 | -90.70691 | 43079 ft | 464 kts | 268° |
| 2026-05-06 18:38 | 43.13367 | -90.79524 | 43075 ft | 466 kts | 268° |
| 2026-05-06 18:38 | 43.13333 | -90.86952 | 43079 ft | 465 kts | 268° |
| 2026-05-06 18:39 | 43.13286 | -90.95806 | 43090 ft | 465 kts | 268° |
| 2026-05-06 18:40 | 43.13203 | -91.09087 | 43090 ft | 465 kts | 268° |
| 2026-05-06 18:40 | 43.13138 | -91.17943 | 43085 ft | 466 kts | 268° |
| 2026-05-06 18:41 | 43.13067 | -91.26814 | 43089 ft | 466 kts | 268° |
| 2026-05-06 18:41 | 43.12988 | -91.35692 | 43091 ft | 466 kts | 268° |
| 2026-05-06 18:42 | 43.12904 | -91.44566 | 43093 ft | 466 kts | 268° |
| 2026-05-06 18:42 | 43.12812 | -91.53437 | 43093 ft | 466 kts | 268° |
| 2026-05-06 18:43 | 43.12713 | -91.62328 | 43082 ft | 467 kts | 268° |
| 2026-05-06 18:43 | 43.12607 | -91.71222 | 43081 ft | 467 kts | 268° |
| 2026-05-06 18:44 | 43.12494 | -91.80113 | 43083 ft | 467 kts | 268° |
| 2026-05-06 18:44 | 43.12374 | -91.89006 | 43097 ft | 467 kts | 268° |
| 2026-05-06 18:45 | 43.12247 | -91.97914 | 43101 ft | 469 kts | 268° |
| 2026-05-06 18:45 | 43.12114 | -92.06835 | 43102 ft | 469 kts | 268° |
| 2026-05-06 18:46 | 43.11973 | -92.15747 | 43106 ft | 469 kts | 267° |
| 2026-05-06 18:46 | 43.11825 | -92.24664 | 43102 ft | 469 kts | 267° |
| 2026-05-06 18:47 | 43.11670 | -92.33591 | 43110 ft | 470 kts | 267° |
| 2026-05-06 18:47 | 43.11508 | -92.42537 | 43105 ft | 470 kts | 267° |
| 2026-05-06 18:48 | 43.11339 | -92.51481 | 43104 ft | 470 kts | 267° |
| 2026-05-06 18:48 | 43.11163 | -92.60420 | 43104 ft | 470 kts | 267° |
| 2026-05-06 18:49 | 43.10980 | -92.69358 | 43099 ft | 470 kts | 267° |
| 2026-05-06 18:49 | 43.10790 | -92.78308 | 43098 ft | 470 kts | 267° |
| 2026-05-06 18:50 | 43.10593 | -92.87257 | 43099 ft | 471 kts | 267° |
| 2026-05-06 18:50 | 43.10389 | -92.96206 | 43097 ft | 470 kts | 267° |
| 2026-05-06 18:51 | 43.10178 | -93.05153 | 43101 ft | 470 kts | 267° |
| 2026-05-06 18:51 | 43.09959 | -93.14116 | 43112 ft | 471 kts | 267° |
| 2026-05-06 18:52 | 43.09734 | -93.23082 | 43115 ft | 471 kts | 267° |
| 2026-05-06 18:52 | 43.09497 | -93.32048 | 43115 ft | 471 kts | 266° |
| 2026-05-06 18:53 | 43.08725 | -93.40943 | 43105 ft | 471 kts | 262° |
| 2026-05-06 18:53 | 43.07921 | -93.49834 | 43110 ft | 471 kts | 262° |
| 2026-05-06 18:54 | 43.07071 | -93.58719 | 43115 ft | 471 kts | 262° |
| 2026-05-06 18:54 | 43.06235 | -93.67606 | 43114 ft | 471 kts | 262° |
| 2026-05-06 18:55 | 43.05383 | -93.76483 | 43118 ft | 471 kts | 262° |
| 2026-05-06 18:55 | 43.04527 | -93.85369 | 43119 ft | 472 kts | 262° |
| 2026-05-06 18:56 | 43.03656 | -93.94319 | 43121 ft | 472 kts | 262° |
| 2026-05-06 18:56 | 43.02785 | -94.03206 | 43121 ft | 472 kts | 262° |
| 2026-05-06 18:57 | 43.01913 | -94.12025 | 43118 ft | 472 kts | 262° |
| 2026-05-06 18:57 | 43.01028 | -94.20910 | 43110 ft | 472 kts | 262° |
| 2026-05-06 18:58 | 43.00132 | -94.29828 | 43108 ft | 473 kts | 262° |
| 2026-05-06 18:58 | 42.99225 | -94.38790 | 43114 ft | 474 kts | 262° |
| 2026-05-06 18:59 | 42.98321 | -94.47641 | 43122 ft | 474 kts | 262° |
| 2026-05-06 18:59 | 42.97405 | -94.56547 | 43130 ft | 473 kts | 262° |
| 2026-05-06 19:00 | 42.96481 | -94.65464 | 43134 ft | 475 kts | 262° |
| 2026-05-06 19:00 | 42.95258 | -94.74302 | 43140 ft | 474 kts | 255° |
| 2026-05-06 19:01 | 42.93421 | -94.82951 | 43149 ft | 475 kts | 255° |
| 2026-05-06 19:01 | 42.91584 | -94.91672 | 43131 ft | 475 kts | 254° |
| 2026-05-06 19:02 | 42.89753 | -95.00241 | 43133 ft | 474 kts | 254° |
| 2026-05-06 19:02 | 42.87914 | -95.08876 | 43136 ft | 474 kts | 254° |
| 2026-05-06 19:03 | 42.86049 | -95.17557 | 43133 ft | 474 kts | 254° |
| 2026-05-06 19:03 | 42.84194 | -95.26175 | 43128 ft | 474 kts | 254° |
| 2026-05-06 19:04 | 42.82330 | -95.34789 | 43121 ft | 474 kts | 254° |
| 2026-05-06 19:04 | 42.80457 | -95.43418 | 43121 ft | 475 kts | 254° |
| 2026-05-06 19:05 | 42.78576 | -95.52042 | 43121 ft | 475 kts | 254° |
| 2026-05-06 19:05 | 42.76689 | -95.60662 | 43112 ft | 475 kts | 254° |
| 2026-05-06 19:06 | 42.74795 | -95.69281 | 43128 ft | 475 kts | 254° |
| 2026-05-06 19:06 | 42.72892 | -95.77903 | 43119 ft | 476 kts | 254° |
| 2026-05-06 19:07 | 42.70982 | -95.86522 | 43113 ft | 476 kts | 254° |
| 2026-05-06 19:07 | 42.69066 | -95.95138 | 43110 ft | 476 kts | 254° |
| 2026-05-06 19:08 | 42.67142 | -96.03750 | 43102 ft | 476 kts | 254° |
| 2026-05-06 19:08 | 42.65212 | -96.12358 | 43104 ft | 477 kts | 254° |
| 2026-05-06 19:09 | 42.63269 | -96.20988 | 43106 ft | 477 kts | 254° |
| 2026-05-06 19:09 | 42.61321 | -96.29606 | 43110 ft | 477 kts | 253° |
| 2026-05-06 19:10 | 42.59368 | -96.38216 | 43126 ft | 477 kts | 253° |
| 2026-05-06 19:10 | 42.57408 | -96.46820 | 43121 ft | 477 kts | 253° |
| 2026-05-06 19:11 | 42.55438 | -96.55433 | 43130 ft | 478 kts | 253° |
| 2026-05-06 19:11 | 42.53462 | -96.64040 | 43139 ft | 478 kts | 253° |
| 2026-05-06 19:12 | 42.51479 | -96.72646 | 43141 ft | 478 kts | 253° |
| 2026-05-06 19:12 | 42.49491 | -96.81239 | 43145 ft | 478 kts | 253° |
| 2026-05-06 19:13 | 42.47492 | -96.89840 | 43137 ft | 481 kts | 253° |
| 2026-05-06 19:13 | 42.45482 | -96.98464 | 43140 ft | 480 kts | 253° |
| 2026-05-06 19:14 | 42.43465 | -97.07079 | 43142 ft | 480 kts | 253° |
| 2026-05-06 19:14 | 42.41443 | -97.15686 | 43143 ft | 480 kts | 253° |
| 2026-05-06 19:15 | 42.39414 | -97.24289 | 43150 ft | 480 kts | 253° |
| 2026-05-06 19:15 | 42.37380 | -97.32880 | 43162 ft | 478 kts | 253° |
| 2026-05-06 19:16 | 42.35676 | -97.40051 | 43167 ft | 478 kts | 253° |
| 2026-05-06 19:16 | 42.33635 | -97.48612 | 43172 ft | 478 kts | 253° |
| 2026-05-06 19:17 | 42.31588 | -97.57164 | 43174 ft | 478 kts | 253° |
| 2026-05-06 19:17 | 42.29533 | -97.65722 | 43162 ft | 479 kts | 253° |
| 2026-05-06 19:18 | 42.27468 | -97.74283 | 43163 ft | 479 kts | 253° |
| 2026-05-06 19:18 | 42.25398 | -97.82838 | 43164 ft | 479 kts | 253° |
| 2026-05-06 19:19 | 42.23321 | -97.91388 | 43157 ft | 479 kts | 252° |
| 2026-05-06 19:19 | 42.21238 | -97.99930 | 43153 ft | 481 kts | 252° |
| 2026-05-06 19:20 | 42.19141 | -98.08500 | 43157 ft | 481 kts | 252° |
| 2026-05-06 19:20 | 42.17037 | -98.17066 | 43155 ft | 481 kts | 252° |
| 2026-05-06 19:21 | 42.14927 | -98.25624 | 43148 ft | 481 kts | 252° |
| 2026-05-06 19:21 | 42.12810 | -98.34179 | 43151 ft | 481 kts | 252° |
| 2026-05-06 19:22 | 42.10683 | -98.42745 | 43150 ft | 483 kts | 252° |
| 2026-05-06 19:22 | 42.08550 | -98.51302 | 43149 ft | 481 kts | 252° |
| 2026-05-06 19:23 | 42.06417 | -98.59827 | 43147 ft | 481 kts | 252° |
| 2026-05-06 19:23 | 42.04278 | -98.68348 | 43145 ft | 480 kts | 252° |
| 2026-05-06 19:24 | 42.02129 | -98.76873 | 43141 ft | 482 kts | 252° |
| 2026-05-06 19:24 | 41.99972 | -98.85402 | 43139 ft | 482 kts | 252° |
| 2026-05-06 19:25 | 41.97809 | -98.93924 | 43138 ft | 482 kts | 252° |
| 2026-05-06 19:25 | 41.95639 | -99.02443 | 43145 ft | 482 kts | 252° |
| 2026-05-06 19:26 | 41.93462 | -99.10958 | 43144 ft | 483 kts | 252° |
| 2026-05-06 19:26 | 41.91556 | -99.19614 | 43138 ft | 483 kts | 256° |
| 2026-05-06 19:27 | 41.89777 | -99.28318 | 43141 ft | 483 kts | 255° |
| 2026-05-06 19:27 | 41.87996 | -99.37017 | 43143 ft | 483 kts | 255° |
| 2026-05-06 19:28 | 41.86210 | -99.45709 | 43140 ft | 483 kts | 255° |
| 2026-05-06 19:28 | 41.84411 | -99.54416 | 43132 ft | 485 kts | 255° |
| 2026-05-06 19:29 | 41.82608 | -99.63121 | 43132 ft | 484 kts | 255° |
| 2026-05-06 19:29 | 41.80796 | -99.71820 | 43134 ft | 484 kts | 255° |
| 2026-05-06 19:30 | 41.78979 | -99.80513 | 43131 ft | 484 kts | 255° |
| 2026-05-06 19:30 | 41.77154 | -99.89208 | 43135 ft | 486 kts | 255° |
| 2026-05-06 19:31 | 41.75322 | -99.97894 | 43138 ft | 484 kts | 255° |
| 2026-05-06 19:31 | 41.72564 | -100.10910 | 43144 ft | 484 kts | 255° |
| 2026-05-06 19:32 | 41.70717 | -100.19583 | 43144 ft | 484 kts | 255° |
| 2026-05-06 19:32 | 41.68862 | -100.28260 | 43138 ft | 485 kts | 255° |
| 2026-05-06 19:33 | 41.66997 | -100.36939 | 43141 ft | 485 kts | 255° |
| 2026-05-06 19:33 | 41.65127 | -100.45615 | 43135 ft | 486 kts | 255° |
| 2026-05-06 19:34 | 41.63250 | -100.54285 | 43134 ft | 486 kts | 255° |
| 2026-05-06 19:34 | 41.61364 | -100.62962 | 43139 ft | 488 kts | 255° |
| 2026-05-06 19:35 | 41.59466 | -100.71653 | 43141 ft | 487 kts | 255° |
| 2026-05-06 19:35 | 41.57563 | -100.80339 | 43143 ft | 487 kts | 255° |
| 2026-05-06 19:36 | 41.55654 | -100.89015 | 43145 ft | 487 kts | 255° |
| 2026-05-06 19:36 | 41.53739 | -100.97686 | 43142 ft | 487 kts | 254° |
| 2026-05-06 19:37 | 41.51817 | -101.06349 | 43143 ft | 487 kts | 254° |
| 2026-05-06 19:37 | 41.50215 | -101.13548 | 43142 ft | 487 kts | 254° |
| 2026-05-06 19:38 | 41.47526 | -101.23491 | 43149 ft | 488 kts | 250° |
| 2026-05-06 19:38 | 41.45126 | -101.31945 | 43149 ft | 488 kts | 250° |
| 2026-05-06 19:39 | 41.42693 | -101.40413 | 42934 ft | 486 kts | 250° |
| 2026-05-06 19:39 | 41.41485 | -101.44610 | 42495 ft | 485 kts | 250° |
| 2026-05-06 19:39 | 41.40284 | -101.48798 | 42096 ft | 483 kts | 250° |
| 2026-05-06 19:40 | 41.39083 | -101.52970 | 41677 ft | 483 kts | 250° |
| 2026-05-06 19:40 | 41.37876 | -101.57145 | 41257 ft | 484 kts | 250° |
| 2026-05-06 19:40 | 41.36666 | -101.61327 | 40831 ft | 484 kts | 250° |
| 2026-05-06 19:40 | 41.35456 | -101.65506 | 40409 ft | 485 kts | 250° |
| 2026-05-06 19:41 | 41.34242 | -101.69695 | 39983 ft | 485 kts | 251° |
| 2026-05-06 19:41 | 41.33022 | -101.73890 | 39562 ft | 487 kts | 251° |
| 2026-05-06 19:41 | 41.31800 | -101.78089 | 39137 ft | 487 kts | 251° |
| 2026-05-06 19:41 | 41.30575 | -101.82290 | 38681 ft | 487 kts | 251° |
| 2026-05-06 19:42 | 41.29349 | -101.86491 | 38224 ft | 488 kts | 251° |
| 2026-05-06 19:42 | 41.28117 | -101.90705 | 37795 ft | 489 kts | 251° |
| 2026-05-06 19:42 | 41.26882 | -101.94922 | 37369 ft | 490 kts | 251° |
| 2026-05-06 19:42 | 41.25642 | -101.99147 | 36937 ft | 491 kts | 251° |
| 2026-05-06 19:43 | 41.24397 | -102.03380 | 36505 ft | 492 kts | 251° |
| 2026-05-06 19:43 | 41.23146 | -102.07631 | 36067 ft | 496 kts | 251° |
| 2026-05-06 19:43 | 41.21885 | -102.11912 | 35634 ft | 498 kts | 251° |
| 2026-05-06 19:43 | 41.20617 | -102.16202 | 35194 ft | 500 kts | 251° |
| 2026-05-06 19:44 | 41.19346 | -102.20496 | 34748 ft | 501 kts | 251° |
| 2026-05-06 19:44 | 41.18069 | -102.24807 | 34310 ft | 502 kts | 251° |
| 2026-05-06 19:44 | 41.16788 | -102.29133 | 33828 ft | 505 kts | 251° |
| 2026-05-06 19:44 | 41.15527 | -102.33459 | 33369 ft | 500 kts | 251° |
| 2026-05-06 19:45 | 41.14271 | -102.37798 | 32926 ft | 495 kts | 251° |
| 2026-05-06 19:45 | 41.13028 | -102.42040 | 32477 ft | 492 kts | 251° |
| 2026-05-06 19:45 | 41.11774 | -102.46291 | 32058 ft | 494 kts | 251° |
| 2026-05-06 19:45 | 41.10532 | -102.50507 | 31616 ft | 489 kts | 251° |
| 2026-05-06 19:46 | 41.09304 | -102.54691 | 31184 ft | 485 kts | 251° |
| 2026-05-06 19:46 | 41.08082 | -102.58840 | 30755 ft | 479 kts | 251° |
| 2026-05-06 19:46 | 41.06879 | -102.62899 | 30351 ft | 471 kts | 251° |
| 2026-05-06 19:46 | 41.05704 | -102.66871 | 29908 ft | 467 kts | 251° |
| 2026-05-06 19:47 | 41.04507 | -102.70918 | 29490 ft | 465 kts | 251° |
| 2026-05-06 19:47 | 41.03330 | -102.74886 | 29083 ft | 462 kts | 251° |
| 2026-05-06 19:47 | 41.02155 | -102.78836 | 28670 ft | 463 kts | 251° |
| 2026-05-06 19:47 | 41.00972 | -102.82811 | 28274 ft | 462 kts | 251° |
| 2026-05-06 19:48 | 40.99810 | -102.86707 | 27875 ft | 460 kts | 251° |
| 2026-05-06 19:48 | 40.98623 | -102.90685 | 27467 ft | 457 kts | 251° |
| 2026-05-06 19:48 | 40.97456 | -102.94586 | 27066 ft | 454 kts | 251° |
| 2026-05-06 19:48 | 40.96312 | -102.98409 | 26676 ft | 452 kts | 251° |
| 2026-05-06 19:49 | 40.95142 | -103.02310 | 26273 ft | 449 kts | 251° |
| 2026-05-06 19:49 | 40.93948 | -103.06111 | 25877 ft | 447 kts | 249° |
| 2026-05-06 19:49 | 40.92747 | -103.09826 | 25498 ft | 444 kts | 250° |
| 2026-05-06 19:49 | 40.91586 | -103.13646 | 25095 ft | 441 kts | 251° |
| 2026-05-06 19:50 | 40.90427 | -103.17371 | 24723 ft | 445 kts | 250° |
| 2026-05-06 19:50 | 40.89190 | -103.21162 | 24331 ft | 442 kts | 249° |
| 2026-05-06 19:50 | 40.87985 | -103.24881 | 23944 ft | 438 kts | 250° |
| 2026-05-06 19:50 | 40.86818 | -103.28584 | 23530 ft | 435 kts | 250° |
| 2026-05-06 19:51 | 40.85654 | -103.32264 | 23130 ft | 433 kts | 250° |
| 2026-05-06 19:51 | 40.84477 | -103.35921 | 22754 ft | 431 kts | 249° |
| 2026-05-06 19:51 | 40.83322 | -103.39499 | 22381 ft | 428 kts | 249° |
| 2026-05-06 19:51 | 40.82166 | -103.43108 | 22006 ft | 426 kts | 249° |
| 2026-05-06 19:52 | 40.81016 | -103.46699 | 21632 ft | 424 kts | 249° |
| 2026-05-06 19:52 | 40.79866 | -103.50269 | 21245 ft | 422 kts | 249° |
| 2026-05-06 19:52 | 40.78716 | -103.53831 | 20890 ft | 421 kts | 249° |
| 2026-05-06 19:52 | 40.77572 | -103.57376 | 20523 ft | 419 kts | 249° |
| 2026-05-06 19:53 | 40.76435 | -103.60899 | 20152 ft | 417 kts | 249° |
| 2026-05-06 19:53 | 40.75300 | -103.64406 | 19784 ft | 415 kts | 249° |
| 2026-05-06 19:53 | 40.74159 | -103.67926 | 19412 ft | 404 kts | 249° |
| 2026-05-06 19:53 | 40.73434 | -103.70156 | 19177 ft | 399 kts | 249° |
| 2026-05-06 19:54 | 40.72345 | -103.73516 | 18823 ft | 397 kts | 249° |
| 2026-05-06 19:54 | 40.71261 | -103.76854 | 18475 ft | 395 kts | 249° |
| 2026-05-06 19:54 | 40.69830 | -103.81250 | 18021 ft | 393 kts | 249° |
| 2026-05-06 19:54 | 40.68755 | -103.84548 | 17674 ft | 392 kts | 249° |
| 2026-05-06 19:55 | 40.67676 | -103.87857 | 17206 ft | 396 kts | 249° |
| 2026-05-06 19:55 | 40.66948 | -103.90084 | 16871 ft | 391 kts | 249° |
| 2026-05-06 19:55 | 40.65875 | -103.93366 | 16515 ft | 389 kts | 249° |
| 2026-05-06 19:55 | 40.64804 | -103.96636 | 16168 ft | 388 kts | 249° |
| 2026-05-06 19:56 | 40.63739 | -103.99888 | 15829 ft | 386 kts | 249° |
| 2026-05-06 19:56 | 40.62674 | -104.03131 | 15489 ft | 385 kts | 249° |
| 2026-05-06 19:56 | 40.61615 | -104.06357 | 15150 ft | 383 kts | 249° |
| 2026-05-06 19:56 | 40.60575 | -104.09577 | 14819 ft | 381 kts | 250° |
| 2026-05-06 19:57 | 40.59866 | -104.12914 | 14481 ft | 378 kts | 258° |
| 2026-05-06 19:57 | 40.59279 | -104.16277 | 14159 ft | 377 kts | 259° |
| 2026-05-06 19:57 | 40.58675 | -104.19622 | 13811 ft | 375 kts | 258° |
| 2026-05-06 19:57 | 40.58039 | -104.22945 | 13471 ft | 374 kts | 257° |
| 2026-05-06 19:58 | 40.57433 | -104.26147 | 13155 ft | 345 kts | 257° |
| 2026-05-06 19:58 | 40.56892 | -104.29085 | 12860 ft | 317 kts | 258° |
| 2026-05-06 19:58 | 40.56390 | -104.31805 | 12588 ft | 296 kts | 257° |
| 2026-05-06 19:58 | 40.55905 | -104.34401 | 12327 ft | 290 kts | 257° |
| 2026-05-06 19:59 | 40.55425 | -104.36963 | 12090 ft | 288 kts | 257° |
| 2026-05-06 19:59 | 40.54949 | -104.39507 | 11984 ft | 285 kts | 257° |
| 2026-05-06 19:59 | 40.54474 | -104.42051 | 11985 ft | 287 kts | 257° |
| 2026-05-06 19:59 | 40.53999 | -104.44598 | 11990 ft | 287 kts | 257° |
| 2026-05-06 20:00 | 40.53521 | -104.47148 | 11994 ft | 287 kts | 257° |
| 2026-05-06 20:00 | 40.53043 | -104.49696 | 11998 ft | 287 kts | 257° |
| 2026-05-06 20:00 | 40.52565 | -104.52242 | 11997 ft | 287 kts | 257° |
| 2026-05-06 20:00 | 40.52086 | -104.54789 | 12000 ft | 287 kts | 257° |
| 2026-05-06 20:01 | 40.51607 | -104.57335 | 12009 ft | 287 kts | 257° |
| 2026-05-06 20:01 | 40.51126 | -104.59885 | 11995 ft | 287 kts | 257° |
| 2026-05-06 20:01 | 40.50645 | -104.62434 | 12000 ft | 287 kts | 257° |
| 2026-05-06 20:01 | 40.50164 | -104.64980 | 12000 ft | 288 kts | 257° |
| 2026-05-06 20:02 | 40.49681 | -104.67529 | 12001 ft | 288 kts | 257° |
| 2026-05-06 20:02 | 40.49198 | -104.70077 | 12001 ft | 287 kts | 257° |
| 2026-05-06 20:02 | 40.48714 | -104.72630 | 11894 ft | 288 kts | 257° |
| 2026-05-06 20:02 | 40.48230 | -104.75180 | 11676 ft | 288 kts | 257° |
| 2026-05-06 20:03 | 40.47746 | -104.77722 | 11432 ft | 286 kts | 257° |
| 2026-05-06 20:03 | 40.47264 | -104.80252 | 11182 ft | 285 kts | 257° |
| 2026-05-06 20:03 | 40.46783 | -104.82771 | 10933 ft | 284 kts | 256° |
| 2026-05-06 20:03 | 40.46304 | -104.85279 | 10683 ft | 283 kts | 256° |
| 2026-05-06 20:04 | 40.45828 | -104.87773 | 10436 ft | 281 kts | 256° |
| 2026-05-06 20:04 | 40.45328 | -104.90246 | 10180 ft | 280 kts | 253° |
| 2026-05-06 20:04 | 40.44287 | -104.92379 | 9912 ft | 278 kts | 225° |
| 2026-05-06 20:04 | 40.42651 | -104.93742 | 9958 ft | 281 kts | 202° |
| 2026-05-06 20:05 | 40.40783 | -104.94554 | 10004 ft | 283 kts | 199° |
| 2026-05-06 20:05 | 40.38903 | -104.95347 | 9998 ft | 284 kts | 199° |
| 2026-05-06 20:05 | 40.37029 | -104.96157 | 9999 ft | 283 kts | 199° |
| 2026-05-06 20:05 | 40.35147 | -104.96973 | 9995 ft | 285 kts | 199° |
| 2026-05-06 20:06 | 40.33265 | -104.97782 | 9993 ft | 285 kts | 199° |
| 2026-05-06 20:06 | 40.31382 | -104.98591 | 9989 ft | 285 kts | 199° |
| 2026-05-06 20:06 | 40.29501 | -104.99399 | 9988 ft | 285 kts | 199° |
| 2026-05-06 20:06 | 40.27618 | -105.00208 | 10004 ft | 284 kts | 199° |
| 2026-05-06 20:07 | 40.25736 | -105.01016 | 10003 ft | 285 kts | 199° |
| 2026-05-06 20:07 | 40.23853 | -105.01824 | 10005 ft | 285 kts | 199° |
| 2026-05-06 20:07 | 40.21946 | -105.02522 | 9958 ft | 286 kts | 191° |
| 2026-05-06 20:07 | 40.19966 | -105.02772 | 9769 ft | 286 kts | 185° |
| 2026-05-06 20:08 | 40.17985 | -105.02958 | 9536 ft | 285 kts | 185° |
| 2026-05-06 20:08 | 40.16020 | -105.03184 | 9292 ft | 283 kts | 186° |
| 2026-05-06 20:08 | 40.14067 | -105.03408 | 9038 ft | 280 kts | 183° |
| 2026-05-06 20:08 | 40.12177 | -105.02970 | 9004 ft | 279 kts | 163° |
| 2026-05-06 20:09 | 40.10317 | -105.02222 | 9014 ft | 280 kts | 163° |
| 2026-05-06 20:09 | 40.08458 | -105.01502 | 9008 ft | 274 kts | 164° |
| 2026-05-06 20:09 | 40.06750 | -105.00846 | 8975 ft | 252 kts | 164° |
| 2026-05-06 20:09 | 40.05132 | -105.00217 | 8967 ft | 234 kts | 164° |
| 2026-05-06 20:10 | 40.03605 | -104.99622 | 8967 ft | 225 kts | 164° |
| 2026-05-06 20:10 | 40.02096 | -104.99037 | 8903 ft | 223 kts | 164° |
| 2026-05-06 20:10 | 40.00621 | -104.98464 | 8764 ft | 225 kts | 164° |
| 2026-05-06 20:10 | 39.99120 | -104.97882 | 8591 ft | 225 kts | 164° |
| 2026-05-06 20:11 | 39.97712 | -104.97028 | 8336 ft | 226 kts | 142° |
| 2026-05-06 20:11 | 39.96587 | -104.95661 | 8197 ft | 224 kts | 136° |
| 2026-05-06 20:11 | 39.95442 | -104.94249 | 8017 ft | 224 kts | 137° |
| 2026-05-06 20:11 | 39.94295 | -104.92874 | 7828 ft | 224 kts | 138° |
| 2026-05-06 20:12 | 39.93143 | -104.91495 | 7614 ft | 225 kts | 137° |
| 2026-05-06 20:12 | 39.91988 | -104.90108 | 7421 ft | 226 kts | 137° |
| 2026-05-06 20:12 | 39.90833 | -104.88719 | 7219 ft | 226 kts | 137° |
| 2026-05-06 20:12 | 39.89587 | -104.87492 | 6959 ft | 226 kts | 156° |
| 2026-05-06 20:13 | 39.88068 | -104.87317 | 6930 ft | 218 kts | 190° |
| 2026-05-06 20:13 | 39.86650 | -104.87894 | 6970 ft | 210 kts | 199° |
| 2026-05-06 20:13 | 39.85275 | -104.88525 | 6964 ft | 210 kts | 199° |
| 2026-05-06 20:13 | 39.83989 | -104.89384 | 6910 ft | 210 kts | 223° |
| 2026-05-06 20:14 | 39.83258 | -104.90987 | 6953 ft | 208 kts | 250° |
| 2026-05-06 20:14 | 39.82846 | -104.92792 | 6966 ft | 204 kts | 254° |
| 2026-05-06 20:14 | 39.82520 | -104.94564 | 6938 ft | 196 kts | 264° |
| 2026-05-06 20:14 | 39.82798 | -104.96208 | 6956 ft | 187 kts | 296° |
| 2026-05-06 20:15 | 39.83508 | -104.97595 | 6964 ft | 182 kts | 305° |
| 2026-05-06 20:15 | 39.84220 | -104.98941 | 6958 ft | 176 kts | 304° |
| 2026-05-06 20:15 | 39.84874 | -105.00187 | 6960 ft | 159 kts | 304° |
| 2026-05-06 20:15 | 39.85495 | -105.01368 | 6968 ft | 152 kts | 304° |
| 2026-05-06 20:16 | 39.86081 | -105.02481 | 6969 ft | 146 kts | 304° |
| 2026-05-06 20:16 | 39.86645 | -105.03552 | 6930 ft | 141 kts | 304° |
| 2026-05-06 20:16 | 39.87198 | -105.04601 | 6762 ft | 140 kts | 304° |
| 2026-05-06 20:16 | 39.87751 | -105.05652 | 6540 ft | 141 kts | 304° |
| 2026-05-06 20:17 | 39.88307 | -105.06709 | 6303 ft | 142 kts | 304° |
| 2026-05-06 20:17 | 39.88864 | -105.07767 | 6072 ft | 141 kts | 304° |
| 2026-05-06 20:17 | 39.89417 | -105.08820 | 5876 ft | 141 kts | 304° |
| 2026-05-06 20:17 | 39.89975 | -105.09886 | 5663 ft | 139 kts | 304° |
| 2026-05-06 20:18 | 39.90495 | -105.10873 | 5600 ft | 119 kts | 304° |
| 2026-05-06 20:18 | 39.90834 | -105.11517 | 5619 ft | 62 kts | 304° |
| 2026-05-06 20:18 | 39.90983 | -105.11800 | 5621 ft | 23 kts | 304° |
| 2026-05-06 20:18 | 39.91037 | -105.11858 | 5621 ft | 6 kts | 39° |
| 2026-05-06 20:19 | 39.91035 | -105.11803 | 5620 ft | 7 kts | 99° |
| 2026-05-06 20:19 | 39.91030 | -105.11741 | 5619 ft | 7 kts | 93° |
| 2026-05-06 20:19 | 39.91027 | -105.11681 | 5619 ft | 6 kts | 95° |
| 2026-05-06 20:19 | 39.91022 | -105.11627 | 5619 ft | 6 kts | 109° |
| 2026-05-06 20:20 | 39.90991 | -105.11563 | 5617 ft | 11 kts | 124° |
| 2026-05-06 20:20 | 39.90943 | -105.11472 | 5618 ft | 10 kts | 124° |
| 2026-05-06 20:20 | 39.90903 | -105.11396 | 5616 ft | 11 kts | 124° |
| 2026-05-06 20:20 | 39.90853 | -105.11302 | 5617 ft | 12 kts | 124° |
| 2026-05-06 20:21 | 39.90812 | -105.11223 | 5611 ft | 9 kts | 124° |
| 2026-05-06 20:21 | 39.90808 | -105.11164 | 5611 ft | 6 kts | 41° |
| 2026-05-06 20:21 | 39.90832 | -105.11142 | 5616 ft | 4 kts | 34° |
| 2026-05-06 20:21 | 39.90850 | -105.11126 | 5616 ft | 2 kts | 34° |
| 2026-05-06 20:22 | 39.90860 | -105.11127 | 5618 ft | 0 kts | 330° |
| 2026-05-06 20:22 | 39.90866 | -105.11140 | 5616 ft | 2 kts | 303° |
| 2026-05-06 20:22 | 39.90869 | -105.11146 | 5616 ft | 0 kts | 304° |